메인 페이지
METAR-TAF:

METAR-TAF

공항 :

킨샤사, 콩고

위도: 04-23S, 경도: 015-26E, 고도: 309m

현재 날씨관측

예보는 30분 전, 10:00시(UTC)에 발표되었습니다.
6kt
온도 28°C
습도 74%
기압 1015 hPa
시정: 8000m
고도 2000ft 상공 구름 많음

METAR: FZAA 191000Z 28006KT 8000 BKN020 28/23 Q1015 NOSIG

시각: 11:30 (10:30 UTC)

예보

예보는 5 시간 30분 전, 05:00시(UTC)에 발표되었습니다.
예보 대상 시간: 19일 06시부터 20일 12시까지 (UTC)
남서4kt
시정: 7000m
고도 1800ft 상공 구름 보통
전환 중
19일 11시부터 19일 13시까지 (UTC)
북북서10kt
고도 2400ft 상공 구름 보통
고도 3000ft 상공 구름 조금, 적란운.
일시적
19일 15시부터 19일 18시까지 (UTC)
뇌우
전환 중
19일 19시부터 19일 21시까지 (UTC)
남서2kt
고도 1800ft 상공 구름 조금
전환 중
20일 07시부터 20일 09시까지 (UTC)
고도 2000ft 상공 구름 보통

TAF: FZAA 190500Z 1906/2012 22004KT 7000 SCT018 BECMG 1911/1913 34010KT SCT024 FEW030CB TEMPO 1915/1918 TS BECMG 1919/1921 23002KT FEW018 BECMG 2007/2009 SCT020

4,000개 이상의 공항 관측 자료 및 예보 (METAR 및 TAF 보고).

지도상에서 검색 가능한 기상관측소가 노란 점과 빨간 점으로 표시되어 있습니다.

기상관측소 명을 보려면 표시 위로 마우스를 이동하세요.

날씨 관측과 예보를 보려면 클릭하세요.

지도 변경 : 확대하려면 엑스 표시가 있는 녹색 버튼, 축소하려면 빼기 표시가 있는 녹색 버튼, 다음 페이지의 지도를 보려면 녹색 화살표를 클릭하세요.


METAR-TAF: